sensor_id;sensor_type;location;lat;lon;timestamp;temperature;humidity
8372;DHT22;4223;48.724;8.982;2022-09-02T00:01:12;13.80;28.30
8372;DHT22;4223;48.724;8.982;2022-09-02T00:03:39;13.70;21.60
8372;DHT22;4223;48.724;8.982;2022-09-02T00:06:06;13.70;20.60
8372;DHT22;4223;48.724;8.982;2022-09-02T00:08:35;13.70;34.20
8372;DHT22;4223;48.724;8.982;2022-09-02T00:11:03;13.60;24.70
8372;DHT22;4223;48.724;8.982;2022-09-02T00:13:31;13.60;33.40
8372;DHT22;4223;48.724;8.982;2022-09-02T00:15:58;13.60;29.10
8372;DHT22;4223;48.724;8.982;2022-09-02T00:18:25;13.60;23.30
8372;DHT22;4223;48.724;8.982;2022-09-02T00:20:52;13.60;21.60
8372;DHT22;4223;48.724;8.982;2022-09-02T00:23:21;13.60;23.20
8372;DHT22;4223;48.724;8.982;2022-09-02T00:25:50;13.60;32.90
8372;DHT22;4223;48.724;8.982;2022-09-02T00:28:17;13.50;22.80
8372;DHT22;4223;48.724;8.982;2022-09-02T00:30:44;13.50;19.60
8372;DHT22;4223;48.724;8.982;2022-09-02T00:33:12;13.40;16.80
8372;DHT22;4223;48.724;8.982;2022-09-02T00:35:39;13.20;30.50
8372;DHT22;4223;48.724;8.982;2022-09-02T00:38:06;13.10;39.00
8372;DHT22;4223;48.724;8.982;2022-09-02T00:40:34;13.00;50.20
8372;DHT22;4223;48.724;8.982;2022-09-02T00:43:05;12.90;54.70
8372;DHT22;4223;48.724;8.982;2022-09-02T00:45:33;12.90;61.10
8372;DHT22;4223;48.724;8.982;2022-09-02T00:48:00;12.80;53.60
8372;DHT22;4223;48.724;8.982;2022-09-02T00:50:29;12.80;63.90
8372;DHT22;4223;48.724;8.982;2022-09-02T00:53:01;12.70;66.10
8372;DHT22;4223;48.724;8.982;2022-09-02T00:55:32;12.70;68.00
8372;DHT22;4223;48.724;8.982;2022-09-02T00:58:04;12.70;69.90
8372;DHT22;4223;48.724;8.982;2022-09-02T01:00:34;12.60;75.10
8372;DHT22;4223;48.724;8.982;2022-09-02T01:03:05;12.60;82.40
8372;DHT22;4223;48.724;8.982;2022-09-02T01:05:35;12.50;82.40
8372;DHT22;4223;48.724;8.982;2022-09-02T01:08:03;12.50;74.50
8372;DHT22;4223;48.724;8.982;2022-09-02T01:10:33;12.50;70.40
8372;DHT22;4223;48.724;8.982;2022-09-02T01:13:03;12.50;71.00
8372;DHT22;4223;48.724;8.982;2022-09-02T01:15:32;12.40;67.50
8372;DHT22;4223;48.724;8.982;2022-09-02T01:18:01;12.40;75.80
8372;DHT22;4223;48.724;8.982;2022-09-02T01:20:29;12.40;71.30
8372;DHT22;4223;48.724;8.982;2022-09-02T01:22:57;12.40;69.60
8372;DHT22;4223;48.724;8.982;2022-09-02T01:25:28;12.40;71.60
8372;DHT22;4223;48.724;8.982;2022-09-02T01:27:58;12.40;81.10
8372;DHT22;4223;48.724;8.982;2022-09-02T01:30:25;12.30;63.10
8372;DHT22;4223;48.724;8.982;2022-09-02T01:32:52;12.30;81.00
8372;DHT22;4223;48.724;8.982;2022-09-02T01:35:20;12.20;73.70
8372;DHT22;4223;48.724;8.982;2022-09-02T01:37:47;12.10;77.40
8372;DHT22;4223;48.724;8.982;2022-09-02T01:40:17;12.00;86.60
8372;DHT22;4223;48.724;8.982;2022-09-02T01:42:45;12.00;90.20
8372;DHT22;4223;48.724;8.982;2022-09-02T01:45:12;12.00;87.50
8372;DHT22;4223;48.724;8.982;2022-09-02T01:47:41;12.00;82.30
8372;DHT22;4223;48.724;8.982;2022-09-02T01:50:08;12.00;80.30
8372;DHT22;4223;48.724;8.982;2022-09-02T01:52:36;11.90;80.20
8372;DHT22;4223;48.724;8.982;2022-09-02T01:55:04;11.90;89.00
8372;DHT22;4223;48.724;8.982;2022-09-02T01:57:32;11.90;85.60
8372;DHT22;4223;48.724;8.982;2022-09-02T01:59:59;11.90;78.20
8372;DHT22;4223;48.724;8.982;2022-09-02T02:02:27;11.80;79.50
8372;DHT22;4223;48.724;8.982;2022-09-02T02:04:54;11.80;85.40
8372;DHT22;4223;48.724;8.982;2022-09-02T02:07:21;11.70;82.80
8372;DHT22;4223;48.724;8.982;2022-09-02T02:09:49;11.70;90.60
8372;DHT22;4223;48.724;8.982;2022-09-02T02:12:17;11.60;85.90
8372;DHT22;4223;48.724;8.982;2022-09-02T02:14:46;11.60;87.70
8372;DHT22;4223;48.724;8.982;2022-09-02T02:17:12;11.50;90.10
8372;DHT22;4223;48.724;8.982;2022-09-02T02:19:40;11.50;87.80
8372;DHT22;4223;48.724;8.982;2022-09-02T02:22:08;11.50;91.00
8372;DHT22;4223;48.724;8.982;2022-09-02T02:24:35;11.40;90.30
8372;DHT22;4223;48.724;8.982;2022-09-02T02:27:03;11.50;94.60
8372;DHT22;4223;48.724;8.982;2022-09-02T02:29:31;11.40;91.30
8372;DHT22;4223;48.724;8.982;2022-09-02T02:31:59;11.40;90.70
8372;DHT22;4223;48.724;8.982;2022-09-02T02:34:26;11.40;91.60
8372;DHT22;4223;48.724;8.982;2022-09-02T02:36:53;11.40;90.30
8372;DHT22;4223;48.724;8.982;2022-09-02T02:39:20;11.40;89.50
8372;DHT22;4223;48.724;8.982;2022-09-02T02:41:46;11.40;91.50
8372;DHT22;4223;48.724;8.982;2022-09-02T02:44:13;11.40;92.80
8372;DHT22;4223;48.724;8.982;2022-09-02T02:46:40;11.40;91.60
8372;DHT22;4223;48.724;8.982;2022-09-02T02:49:09;11.30;88.10
8372;DHT22;4223;48.724;8.982;2022-09-02T02:51:36;11.30;83.90
8372;DHT22;4223;48.724;8.982;2022-09-02T02:54:03;11.30;90.60
8372;DHT22;4223;48.724;8.982;2022-09-02T02:56:30;11.30;87.30
8372;DHT22;4223;48.724;8.982;2022-09-02T02:58:58;11.20;91.60
8372;DHT22;4223;48.724;8.982;2022-09-02T03:01:28;11.20;92.80
8372;DHT22;4223;48.724;8.982;2022-09-02T03:03:55;11.20;90.20
8372;DHT22;4223;48.724;8.982;2022-09-02T03:06:23;11.20;93.70
8372;DHT22;4223;48.724;8.982;2022-09-02T03:08:50;11.20;92.00
8372;DHT22;4223;48.724;8.982;2022-09-02T03:11:18;11.20;93.00
8372;DHT22;4223;48.724;8.982;2022-09-02T03:13:47;11.20;91.80
8372;DHT22;4223;48.724;8.982;2022-09-02T03:16:14;11.20;92.40
8372;DHT22;4223;48.724;8.982;2022-09-02T03:18:41;11.20;91.60
8372;DHT22;4223;48.724;8.982;2022-09-02T03:21:08;11.20;91.10
8372;DHT22;4223;48.724;8.982;2022-09-02T03:23:37;11.20;90.70
8372;DHT22;4223;48.724;8.982;2022-09-02T03:26:08;11.10;87.20
8372;DHT22;4223;48.724;8.982;2022-09-02T03:28:36;11.00;83.20
8372;DHT22;4223;48.724;8.982;2022-09-02T03:31:03;11.00;87.90
8372;DHT22;4223;48.724;8.982;2022-09-02T03:33:30;10.90;93.40
8372;DHT22;4223;48.724;8.982;2022-09-02T03:35:57;10.90;92.30
8372;DHT22;4223;48.724;8.982;2022-09-02T03:41:10;11.00;94.50
8372;DHT22;4223;48.724;8.982;2022-09-02T03:43:37;10.90;94.60
8372;DHT22;4223;48.724;8.982;2022-09-02T03:46:04;10.90;94.30
8372;DHT22;4223;48.724;8.982;2022-09-02T03:48:31;10.90;95.60
8372;DHT22;4223;48.724;8.982;2022-09-02T03:50:58;10.90;91.00
8372;DHT22;4223;48.724;8.982;2022-09-02T03:53:24;10.80;88.80
8372;DHT22;4223;48.724;8.982;2022-09-02T03:55:51;10.80;93.00
8372;DHT22;4223;48.724;8.982;2022-09-02T03:58:20;10.80;91.70
8372;DHT22;4223;48.724;8.982;2022-09-02T04:00:49;10.70;93.10
8372;DHT22;4223;48.724;8.982;2022-09-02T04:03:17;10.70;91.20
8372;DHT22;4223;48.724;8.982;2022-09-02T04:05:45;10.70;90.70
8372;DHT22;4223;48.724;8.982;2022-09-02T04:08:12;10.70;90.60
8372;DHT22;4223;48.724;8.982;2022-09-02T04:10:39;10.70;88.20
8372;DHT22;4223;48.724;8.982;2022-09-02T04:13:06;10.60;89.20
8372;DHT22;4223;48.724;8.982;2022-09-02T04:15:37;10.60;91.60
8372;DHT22;4223;48.724;8.982;2022-09-02T04:21:28;10.60;91.20
8372;DHT22;4223;48.724;8.982;2022-09-02T04:23:55;10.50;93.60
8372;DHT22;4223;48.724;8.982;2022-09-02T04:26:22;10.50;95.70
8372;DHT22;4223;48.724;8.982;2022-09-02T04:28:50;10.50;95.40
8372;DHT22;4223;48.724;8.982;2022-09-02T04:31:21;10.50;95.10
8372;DHT22;4223;48.724;8.982;2022-09-02T04:33:50;10.50;95.20
8372;DHT22;4223;48.724;8.982;2022-09-02T04:36:18;10.50;94.10
8372;DHT22;4223;48.724;8.982;2022-09-02T04:38:45;10.50;93.10
8372;DHT22;4223;48.724;8.982;2022-09-02T04:41:15;10.40;94.40
8372;DHT22;4223;48.724;8.982;2022-09-02T04:43:42;10.40;96.70
8372;DHT22;4223;48.724;8.982;2022-09-02T04:46:11;10.40;97.00
8372;DHT22;4223;48.724;8.982;2022-09-02T04:48:39;10.40;97.20
8372;DHT22;4223;48.724;8.982;2022-09-02T04:51:09;10.40;94.60
8372;DHT22;4223;48.724;8.982;2022-09-02T04:53:36;10.30;92.90
8372;DHT22;4223;48.724;8.982;2022-09-02T04:56:05;10.30;94.10
8372;DHT22;4223;48.724;8.982;2022-09-02T04:58:32;10.30;96.60
8372;DHT22;4223;48.724;8.982;2022-09-02T05:01:04;10.30;96.80
8372;DHT22;4223;48.724;8.982;2022-09-02T05:03:31;10.20;95.60
8372;DHT22;4223;48.724;8.982;2022-09-02T05:06:01;10.20;95.70
8372;DHT22;4223;48.724;8.982;2022-09-02T05:08:28;10.20;97.10
8372;DHT22;4223;48.724;8.982;2022-09-02T05:10:55;10.20;97.60
8372;DHT22;4223;48.724;8.982;2022-09-02T05:13:22;10.20;97.90
8372;DHT22;4223;48.724;8.982;2022-09-02T05:15:50;10.30;97.50
8372;DHT22;4223;48.724;8.982;2022-09-02T05:18:17;10.30;97.40
8372;DHT22;4223;48.724;8.982;2022-09-02T05:20:44;10.30;98.00
8372;DHT22;4223;48.724;8.982;2022-09-02T05:23:12;10.40;99.20
8372;DHT22;4223;48.724;8.982;2022-09-02T05:25:40;10.40;99.20
8372;DHT22;4223;48.724;8.982;2022-09-02T05:28:07;10.50;98.10
8372;DHT22;4223;48.724;8.982;2022-09-02T05:30:34;10.50;97.70
8372;DHT22;4223;48.724;8.982;2022-09-02T05:33:02;10.60;94.00
8372;DHT22;4223;48.724;8.982;2022-09-02T05:35:31;10.60;95.50
8372;DHT22;4223;48.724;8.982;2022-09-02T05:37:58;10.60;98.40
8372;DHT22;4223;48.724;8.982;2022-09-02T05:40:27;10.70;98.80
8372;DHT22;4223;48.724;8.982;2022-09-02T05:42:53;10.80;97.00
8372;DHT22;4223;48.724;8.982;2022-09-02T05:45:20;10.90;97.60
8372;DHT22;4223;48.724;8.982;2022-09-02T05:47:48;10.90;98.80
8372;DHT22;4223;48.724;8.982;2022-09-02T05:50:15;11.00;97.70
8372;DHT22;4223;48.724;8.982;2022-09-02T05:52:43;11.10;95.20
8372;DHT22;4223;48.724;8.982;2022-09-02T05:55:10;11.20;94.10
8372;DHT22;4223;48.724;8.982;2022-09-02T05:57:38;11.30;94.00
8372;DHT22;4223;48.724;8.982;2022-09-02T06:00:06;11.40;94.20
8372;DHT22;4223;48.724;8.982;2022-09-02T06:02:33;11.60;94.80
8372;DHT22;4223;48.724;8.982;2022-09-02T06:05:00;11.80;95.40
8372;DHT22;4223;48.724;8.982;2022-09-02T06:07:27;12.10;92.40
8372;DHT22;4223;48.724;8.982;2022-09-02T06:09:54;12.40;77.30
8372;DHT22;4223;48.724;8.982;2022-09-02T06:12:21;12.60;70.80
8372;DHT22;4223;48.724;8.982;2022-09-02T06:14:50;12.70;58.10
8372;DHT22;4223;48.724;8.982;2022-09-02T06:17:16;12.80;48.00
8372;DHT22;4223;48.724;8.982;2022-09-02T06:19:43;12.90;41.70
8372;DHT22;4223;48.724;8.982;2022-09-02T06:22:10;12.90;36.90
8372;DHT22;4223;48.724;8.982;2022-09-02T06:24:37;12.90;34.70
8372;DHT22;4223;48.724;8.982;2022-09-02T06:27:04;13.00;22.50
8372;DHT22;4223;48.724;8.982;2022-09-02T06:29:32;13.00;25.80
8372;DHT22;4223;48.724;8.982;2022-09-02T06:32:00;13.10;1.00
8372;DHT22;4223;48.724;8.982;2022-09-02T06:34:28;13.30;1.00
8372;DHT22;4223;48.724;8.982;2022-09-02T06:36:54;13.40;1.00
8372;DHT22;4223;48.724;8.982;2022-09-02T06:39:22;13.50;1.00
8372;DHT22;4223;48.724;8.982;2022-09-02T06:41:51;13.70;1.00
8372;DHT22;4223;48.724;8.982;2022-09-02T06:44:19;13.90;1.00
8372;DHT22;4223;48.724;8.982;2022-09-02T06:46:51;14.10;1.00
8372;DHT22;4223;48.724;8.982;2022-09-02T06:49:20;14.30;1.00
8372;DHT22;4223;48.724;8.982;2022-09-02T06:51:50;14.60;1.00
8372;DHT22;4223;48.724;8.982;2022-09-02T06:54:20;14.80;1.00
8372;DHT22;4223;48.724;8.982;2022-09-02T06:56:48;15.10;1.00
8372;DHT22;4223;48.724;8.982;2022-09-02T06:59:16;15.40;66.30
8372;DHT22;4223;48.724;8.982;2022-09-02T07:01:43;15.70;1.00
8372;DHT22;4223;48.724;8.982;2022-09-02T07:04:10;15.90;1.00
8372;DHT22;4223;48.724;8.982;2022-09-02T07:06:56;16.20;1.00
8372;DHT22;4223;48.724;8.982;2022-09-02T07:09:24;16.40;99.90
8372;DHT22;4223;48.724;8.982;2022-09-02T07:11:56;16.50;1.00
8372;DHT22;4223;48.724;8.982;2022-09-02T07:14:24;16.80;99.90
8372;DHT22;4223;48.724;8.982;2022-09-02T07:16:53;17.00;99.90
8372;DHT22;4223;48.724;8.982;2022-09-02T07:19:22;17.30;1.00
8372;DHT22;4223;48.724;8.982;2022-09-02T07:21:49;17.70;99.90
8372;DHT22;4223;48.724;8.982;2022-09-02T07:24:18;18.00;1.00
8372;DHT22;4223;48.724;8.982;2022-09-02T07:26:45;18.40;99.90
8372;DHT22;4223;48.724;8.982;2022-09-02T07:29:13;19.00;99.90
8372;DHT22;4223;48.724;8.982;2022-09-02T07:31:42;19.50;1.00
8372;DHT22;4223;48.724;8.982;2022-09-02T07:34:10;20.10;1.00
8372;DHT22;4223;48.724;8.982;2022-09-02T07:36:37;21.10;1.00
8372;DHT22;4223;48.724;8.982;2022-09-02T07:39:07;22.00;1.00
8372;DHT22;4223;48.724;8.982;2022-09-02T07:41:36;22.90;99.90
8372;DHT22;4223;48.724;8.982;2022-09-02T07:44:04;23.60;99.90
8372;DHT22;4223;48.724;8.982;2022-09-02T07:46:31;24.30;99.90
8372;DHT22;4223;48.724;8.982;2022-09-02T07:48:59;24.90;99.90
8372;DHT22;4223;48.724;8.982;2022-09-02T07:51:26;25.60;99.90
8372;DHT22;4223;48.724;8.982;2022-09-02T07:53:53;25.90;99.90
8372;DHT22;4223;48.724;8.982;2022-09-02T07:56:21;26.50;99.90
8372;DHT22;4223;48.724;8.982;2022-09-02T07:58:49;27.00;99.90
8372;DHT22;4223;48.724;8.982;2022-09-02T08:01:17;27.40;99.90
8372;DHT22;4223;48.724;8.982;2022-09-02T08:03:45;27.70;99.90
8372;DHT22;4223;48.724;8.982;2022-09-02T08:06:12;27.80;99.90
8372;DHT22;4223;48.724;8.982;2022-09-02T08:08:39;28.20;99.90
8372;DHT22;4223;48.724;8.982;2022-09-02T08:11:07;28.70;99.90
8372;DHT22;4223;48.724;8.982;2022-09-02T08:13:35;28.50;99.90
8372;DHT22;4223;48.724;8.982;2022-09-02T08:16:04;28.90;99.90
8372;DHT22;4223;48.724;8.982;2022-09-02T08:18:31;28.50;99.90
8372;DHT22;4223;48.724;8.982;2022-09-02T08:20:58;28.90;99.90
8372;DHT22;4223;48.724;8.982;2022-09-02T08:23:26;28.60;99.90
8372;DHT22;4223;48.724;8.982;2022-09-02T08:25:53;28.60;99.90
8372;DHT22;4223;48.724;8.982;2022-09-02T08:28:20;29.30;99.90
8372;DHT22;4223;48.724;8.982;2022-09-02T08:30:46;26.80;99.90
8372;DHT22;4223;48.724;8.982;2022-09-02T08:33:15;29.10;99.90
8372;DHT22;4223;48.724;8.982;2022-09-02T08:35:41;29.10;99.90
8372;DHT22;4223;48.724;8.982;2022-09-02T08:38:08;29.20;99.90
8372;DHT22;4223;48.724;8.982;2022-09-02T08:40:37;29.60;99.90
8372;DHT22;4223;48.724;8.982;2022-09-02T08:43:24;29.30;99.90
8372;DHT22;4223;48.724;8.982;2022-09-02T08:45:52;29.40;99.90
8372;DHT22;4223;48.724;8.982;2022-09-02T08:48:26;29.40;99.90
8372;DHT22;4223;48.724;8.982;2022-09-02T08:51:02;29.40;99.90
8372;DHT22;4223;48.724;8.982;2022-09-02T08:53:34;29.40;99.90
8372;DHT22;4223;48.724;8.982;2022-09-02T08:56:04;28.60;99.90
8372;DHT22;4223;48.724;8.982;2022-09-02T08:58:38;27.70;99.90
8372;DHT22;4223;48.724;8.982;2022-09-02T09:01:12;27.30;99.90
8372;DHT22;4223;48.724;8.982;2022-09-02T09:04:00;27.20;99.90
8372;DHT22;4223;48.724;8.982;2022-09-02T09:06:35;28.60;99.90
8372;DHT22;4223;48.724;8.982;2022-09-02T09:09:09;28.70;99.90
8372;DHT22;4223;48.724;8.982;2022-09-02T09:11:44;28.90;99.90
8372;DHT22;4223;48.724;8.982;2022-09-02T09:14:19;29.60;99.90
8372;DHT22;4223;48.724;8.982;2022-09-02T09:16:53;29.60;99.90
8372;DHT22;4223;48.724;8.982;2022-09-02T09:19:29;29.20;99.90
8372;DHT22;4223;48.724;8.982;2022-09-02T09:21:57;29.20;99.90
8372;DHT22;4223;48.724;8.982;2022-09-02T09:24:34;29.90;99.90
8372;DHT22;4223;48.724;8.982;2022-09-02T09:27:06;29.10;99.90
8372;DHT22;4223;48.724;8.982;2022-09-02T09:29:34;28.10;99.90
8372;DHT22;4223;48.724;8.982;2022-09-02T09:32:02;28.20;99.90
8372;DHT22;4223;48.724;8.982;2022-09-02T09:34:59;27.10;99.90
8372;DHT22;4223;48.724;8.982;2022-09-02T09:37:30;27.30;99.90
8372;DHT22;4223;48.724;8.982;2022-09-02T09:39:57;27.90;99.90
8372;DHT22;4223;48.724;8.982;2022-09-02T09:42:33;28.10;99.90
8372;DHT22;4223;48.724;8.982;2022-09-02T09:45:15;27.90;99.90
8372;DHT22;4223;48.724;8.982;2022-09-02T09:47:43;28.30;99.90
8372;DHT22;4223;48.724;8.982;2022-09-02T09:50:14;27.80;99.90
8372;DHT22;4223;48.724;8.982;2022-09-02T09:52:43;27.90;99.90
8372;DHT22;4223;48.724;8.982;2022-09-02T09:55:17;28.20;99.90
8372;DHT22;4223;48.724;8.982;2022-09-02T09:57:47;27.60;99.90
8372;DHT22;4223;48.724;8.982;2022-09-02T10:00:20;27.20;99.90
8372;DHT22;4223;48.724;8.982;2022-09-02T10:02:49;27.50;99.90
8372;DHT22;4223;48.724;8.982;2022-09-02T10:05:28;28.20;99.90
8372;DHT22;4223;48.724;8.982;2022-09-02T10:07:58;28.10;99.90
8372;DHT22;4223;48.724;8.982;2022-09-02T10:10:28;27.90;99.90
8372;DHT22;4223;48.724;8.982;2022-09-02T10:12:58;27.80;99.90
8372;DHT22;4223;48.724;8.982;2022-09-02T10:15:35;27.30;99.30
8372;DHT22;4223;48.724;8.982;2022-09-02T10:18:13;27.70;99.90
8372;DHT22;4223;48.724;8.982;2022-09-02T10:20:54;27.90;99.90
8372;DHT22;4223;48.724;8.982;2022-09-02T10:23:39;27.40;99.60
8372;DHT22;4223;48.724;8.982;2022-09-02T10:26:28;27.50;99.90
8372;DHT22;4223;48.724;8.982;2022-09-02T10:32:20;26.90;99.00
8372;DHT22;4223;48.724;8.982;2022-09-02T10:34:55;27.10;99.90
8372;DHT22;4223;48.724;8.982;2022-09-02T10:37:29;27.60;99.80
8372;DHT22;4223;48.724;8.982;2022-09-02T10:40:09;26.80;98.40
8372;DHT22;4223;48.724;8.982;2022-09-02T10:42:45;27.30;99.70
8372;DHT22;4223;48.724;8.982;2022-09-02T10:45:15;27.10;97.80
8372;DHT22;4223;48.724;8.982;2022-09-02T10:47:55;27.00;99.90
8372;DHT22;4223;48.724;8.982;2022-09-02T10:50:38;27.30;98.60
8372;DHT22;4223;48.724;8.982;2022-09-02T10:53:30;27.10;98.30
8372;DHT22;4223;48.724;8.982;2022-09-02T10:56:00;26.70;96.10
8372;DHT22;4223;48.724;8.982;2022-09-02T10:58:38;26.80;97.20
8372;DHT22;4223;48.724;8.982;2022-09-02T11:01:07;27.00;97.10
8372;DHT22;4223;48.724;8.982;2022-09-02T11:03:41;26.30;96.40
8372;DHT22;4223;48.724;8.982;2022-09-02T11:06:13;26.40;98.30
8372;DHT22;4223;48.724;8.982;2022-09-02T11:08:46;26.70;96.70
8372;DHT22;4223;48.724;8.982;2022-09-02T11:11:19;26.60;95.80
8372;DHT22;4223;48.724;8.982;2022-09-02T11:14:01;26.40;94.40
8372;DHT22;4223;48.724;8.982;2022-09-02T11:16:34;26.50;96.10
8372;DHT22;4223;48.724;8.982;2022-09-02T11:19:09;26.40;95.40
8372;DHT22;4223;48.724;8.982;2022-09-02T11:21:49;26.40;96.20
8372;DHT22;4223;48.724;8.982;2022-09-02T11:24:25;26.60;96.00
8372;DHT22;4223;48.724;8.982;2022-09-02T11:27:02;26.80;94.40
8372;DHT22;4223;48.724;8.982;2022-09-02T11:29:37;26.70;95.00
8372;DHT22;4223;48.724;8.982;2022-09-02T11:32:14;26.70;96.20
8372;DHT22;4223;48.724;8.982;2022-09-02T11:34:46;26.60;95.20
8372;DHT22;4223;48.724;8.982;2022-09-02T11:37:26;26.70;95.00
8372;DHT22;4223;48.724;8.982;2022-09-02T11:40:00;26.60;93.70
8372;DHT22;4223;48.724;8.982;2022-09-02T11:42:45;26.60;95.20
8372;DHT22;4223;48.724;8.982;2022-09-02T11:48:39;26.80;94.60
8372;DHT22;4223;48.724;8.982;2022-09-02T11:51:31;26.80;93.20
8372;DHT22;4223;48.724;8.982;2022-09-02T11:54:03;26.30;92.60
8372;DHT22;4223;48.724;8.982;2022-09-02T11:56:37;26.20;94.10
8372;DHT22;4223;48.724;8.982;2022-09-02T11:59:06;26.30;94.50
8372;DHT22;4223;48.724;8.982;2022-09-02T12:01:35;26.10;93.20
8372;DHT22;4223;48.724;8.982;2022-09-02T12:04:05;26.40;93.20
8372;DHT22;4223;48.724;8.982;2022-09-02T12:06:32;26.20;92.30
8372;DHT22;4223;48.724;8.982;2022-09-02T12:09:07;26.20;91.40
8372;DHT22;4223;48.724;8.982;2022-09-02T12:11:42;25.90;91.80
8372;DHT22;4223;48.724;8.982;2022-09-02T12:17:00;25.70;94.10
8372;DHT22;4223;48.724;8.982;2022-09-02T12:19:39;26.00;99.90
8372;DHT22;4223;48.724;8.982;2022-09-02T12:22:34;26.30;92.80
8372;DHT22;4223;48.724;8.982;2022-09-02T12:25:05;26.20;91.80
8372;DHT22;4223;48.724;8.982;2022-09-02T12:28:21;26.30;91.70
8372;DHT22;4223;48.724;8.982;2022-09-02T12:31:12;26.60;93.10
8372;DHT22;4223;48.724;8.982;2022-09-02T12:33:41;26.90;93.40
8372;DHT22;4223;48.724;8.982;2022-09-02T12:36:43;26.90;90.10
8372;DHT22;4223;48.724;8.982;2022-09-02T12:39:47;27.00;93.00
8372;DHT22;4223;48.724;8.982;2022-09-02T12:42:23;27.10;90.70
8372;DHT22;4223;48.724;8.982;2022-09-02T12:45:02;26.70;91.30
8372;DHT22;4223;48.724;8.982;2022-09-02T12:47:45;26.70;99.90
8372;DHT22;4223;48.724;8.982;2022-09-02T12:50:21;26.60;93.90
8372;DHT22;4223;48.724;8.982;2022-09-02T12:52:50;26.90;93.70
8372;DHT22;4223;48.724;8.982;2022-09-02T12:55:21;27.00;90.70
8372;DHT22;4223;48.724;8.982;2022-09-02T12:57:51;26.80;92.50
8372;DHT22;4223;48.724;8.982;2022-09-02T13:00:30;26.80;93.80
8372;DHT22;4223;48.724;8.982;2022-09-02T13:03:10;26.90;91.90
8372;DHT22;4223;48.724;8.982;2022-09-02T13:05:51;27.00;93.10
8372;DHT22;4223;48.724;8.982;2022-09-02T13:08:45;26.70;91.50
8372;DHT22;4223;48.724;8.982;2022-09-02T13:11:42;26.60;91.70
8372;DHT22;4223;48.724;8.982;2022-09-02T13:14:49;26.90;93.30
8372;DHT22;4223;48.724;8.982;2022-09-02T13:17:46;27.30;92.80
8372;DHT22;4223;48.724;8.982;2022-09-02T13:20:36;27.30;92.20
8372;DHT22;4223;48.724;8.982;2022-09-02T13:26:13;26.90;93.30
8372;DHT22;4223;48.724;8.982;2022-09-02T13:29:23;27.00;99.90
8372;DHT22;4223;48.724;8.982;2022-09-02T13:32:00;27.10;92.70
8372;DHT22;4223;48.724;8.982;2022-09-02T13:34:31;26.90;91.60
8372;DHT22;4223;48.724;8.982;2022-09-02T13:36:58;26.70;93.20
8372;DHT22;4223;48.724;8.982;2022-09-02T13:39:26;26.80;92.40
8372;DHT22;4223;48.724;8.982;2022-09-02T13:41:53;26.80;92.30
8372;DHT22;4223;48.724;8.982;2022-09-02T13:44:22;26.70;92.60
8372;DHT22;4223;48.724;8.982;2022-09-02T13:46:51;27.00;93.30
8372;DHT22;4223;48.724;8.982;2022-09-02T13:49:21;27.00;92.50
8372;DHT22;4223;48.724;8.982;2022-09-02T13:51:51;26.80;91.40
8372;DHT22;4223;48.724;8.982;2022-09-02T13:54:30;26.60;92.10
8372;DHT22;4223;48.724;8.982;2022-09-02T13:57:00;26.80;91.90
8372;DHT22;4223;48.724;8.982;2022-09-02T13:59:35;27.00;92.60
8372;DHT22;4223;48.724;8.982;2022-09-02T14:02:21;27.30;89.60
8372;DHT22;4223;48.724;8.982;2022-09-02T14:04:50;27.40;88.40
8372;DHT22;4223;48.724;8.982;2022-09-02T14:07:25;27.60;92.40
8372;DHT22;4223;48.724;8.982;2022-09-02T14:09:54;27.10;88.40
8372;DHT22;4223;48.724;8.982;2022-09-02T14:12:24;27.50;92.20
8372;DHT22;4223;48.724;8.982;2022-09-02T14:14:52;27.50;90.10
8372;DHT22;4223;48.724;8.982;2022-09-02T14:17:21;27.50;91.90
8372;DHT22;4223;48.724;8.982;2022-09-02T14:19:49;27.20;91.20
8372;DHT22;4223;48.724;8.982;2022-09-02T14:22:22;27.20;91.00
8372;DHT22;4223;48.724;8.982;2022-09-02T14:24:49;27.50;90.30
8372;DHT22;4223;48.724;8.982;2022-09-02T14:27:18;27.20;91.60
8372;DHT22;4223;48.724;8.982;2022-09-02T14:29:46;27.30;91.70
8372;DHT22;4223;48.724;8.982;2022-09-02T14:32:21;27.70;91.70
8372;DHT22;4223;48.724;8.982;2022-09-02T14:37:32;28.00;90.70
8372;DHT22;4223;48.724;8.982;2022-09-02T14:40:06;27.80;91.30
8372;DHT22;4223;48.724;8.982;2022-09-02T14:42:45;28.00;91.10
8372;DHT22;4223;48.724;8.982;2022-09-02T14:45:13;27.90;90.40
8372;DHT22;4223;48.724;8.982;2022-09-02T14:47:50;28.10;90.40
8372;DHT22;4223;48.724;8.982;2022-09-02T14:50:28;28.40;89.50
8372;DHT22;4223;48.724;8.982;2022-09-02T14:52:59;28.20;89.00
8372;DHT22;4223;48.724;8.982;2022-09-02T14:55:43;27.80;90.30
8372;DHT22;4223;48.724;8.982;2022-09-02T14:58:10;27.90;88.60
8372;DHT22;4223;48.724;8.982;2022-09-02T15:00:38;27.50;90.00
8372;DHT22;4223;48.724;8.982;2022-09-02T15:03:05;27.70;90.80
8372;DHT22;4223;48.724;8.982;2022-09-02T15:05:33;27.80;89.60
8372;DHT22;4223;48.724;8.982;2022-09-02T15:08:02;27.90;88.00
8372;DHT22;4223;48.724;8.982;2022-09-02T15:10:29;28.00;89.50
8372;DHT22;4223;48.724;8.982;2022-09-02T15:12:57;27.60;89.20
8372;DHT22;4223;48.724;8.982;2022-09-02T15:15:24;27.40;89.10
8372;DHT22;4223;48.724;8.982;2022-09-02T15:17:52;27.50;88.50
8372;DHT22;4223;48.724;8.982;2022-09-02T15:20:19;27.30;88.90
8372;DHT22;4223;48.724;8.982;2022-09-02T15:22:47;27.10;87.20
8372;DHT22;4223;48.724;8.982;2022-09-02T15:25:17;26.90;90.10
8372;DHT22;4223;48.724;8.982;2022-09-02T15:27:44;26.50;89.10
8372;DHT22;4223;48.724;8.982;2022-09-02T15:30:12;26.40;90.10
8372;DHT22;4223;48.724;8.982;2022-09-02T15:32:39;26.10;89.70
8372;DHT22;4223;48.724;8.982;2022-09-02T15:35:06;26.20;89.40
8372;DHT22;4223;48.724;8.982;2022-09-02T15:37:34;25.90;90.00
8372;DHT22;4223;48.724;8.982;2022-09-02T15:40:02;25.60;91.10
8372;DHT22;4223;48.724;8.982;2022-09-02T15:42:32;25.20;95.30
8372;DHT22;4223;48.724;8.982;2022-09-02T15:45:00;24.90;91.80
8372;DHT22;4223;48.724;8.982;2022-09-02T15:47:28;24.80;92.80
8372;DHT22;4223;48.724;8.982;2022-09-02T15:49:55;24.80;99.90
8372;DHT22;4223;48.724;8.982;2022-09-02T15:52:23;24.50;92.20
8372;DHT22;4223;48.724;8.982;2022-09-02T15:54:50;24.40;94.40
8372;DHT22;4223;48.724;8.982;2022-09-02T15:57:17;24.30;94.40
8372;DHT22;4223;48.724;8.982;2022-09-02T15:59:45;24.30;94.00
8372;DHT22;4223;48.724;8.982;2022-09-02T16:02:12;24.00;94.10
8372;DHT22;4223;48.724;8.982;2022-09-02T16:04:39;23.80;95.80
8372;DHT22;4223;48.724;8.982;2022-09-02T16:07:06;23.70;96.20
8372;DHT22;4223;48.724;8.982;2022-09-02T16:09:33;23.60;98.60
8372;DHT22;4223;48.724;8.982;2022-09-02T16:12:00;23.60;99.90
8372;DHT22;4223;48.724;8.982;2022-09-02T16:14:27;23.50;99.80
8372;DHT22;4223;48.724;8.982;2022-09-02T16:16:55;23.40;99.90
8372;DHT22;4223;48.724;8.982;2022-09-02T16:19:24;23.30;99.90
8372;DHT22;4223;48.724;8.982;2022-09-02T16:21:52;23.10;99.90
8372;DHT22;4223;48.724;8.982;2022-09-02T16:24:19;23.00;99.90
8372;DHT22;4223;48.724;8.982;2022-09-02T16:26:47;22.90;99.90
8372;DHT22;4223;48.724;8.982;2022-09-02T16:29:15;22.80;99.90
8372;DHT22;4223;48.724;8.982;2022-09-02T16:31:43;22.70;99.90
8372;DHT22;4223;48.724;8.982;2022-09-02T16:34:13;22.60;99.90
8372;DHT22;4223;48.724;8.982;2022-09-02T16:36:42;22.50;99.90
8372;DHT22;4223;48.724;8.982;2022-09-02T16:39:09;22.40;99.90
8372;DHT22;4223;48.724;8.982;2022-09-02T16:41:39;22.30;99.90
8372;DHT22;4223;48.724;8.982;2022-09-02T16:44:10;22.30;99.90
8372;DHT22;4223;48.724;8.982;2022-09-02T16:46:37;22.20;99.90